strutta.com alexa rank chart, strutta.com alexa rank daily changes

strutta.com alexa rank chart, strutta.com alexa rank daily changes

strutta.com
Actual rank:
819 115

RANK HISTORY

Date Rank Diff
2017/09/20 819 115 -9 998
2017/09/19 829 113 +13 870
2017/09/18 815 243 -8 175
2017/09/17 823 418 -23 400
2017/09/16 846 818 -22 542
2017/09/15 869 360 +4 808
2017/09/14 864 552 -2 335
2017/09/13 866 887 +2 958
2017/09/12 863 929 +68 510
2017/09/11 795 419 +24 332
2017/09/10 771 087 -31 183
2017/09/09 802 270 -14 238
2017/09/08 816 508 +16 725
2017/09/07 799 783 -11 382
2017/09/06 811 165 -46 167
2017/09/05 857 332 -22 603
2017/09/04 879 935 +7 997
2017/09/03 871 938 -20 634
2017/09/02 892 572 +44 371
2017/09/01 848 201 +22 217
2017/08/31 825 984 -32 699
2017/08/30 858 683 -1 532
2017/08/29 860 215 +5 673
2017/08/28 854 542 -3 153
2017/08/27 857 695 -14 562
2017/08/26 872 257 +40 919
2017/08/25 831 338 +12 808
2017/08/24 818 530 -41 548
2017/08/23 860 078 -33 849
2017/08/22 893 927 -6 879
2017/08/21 900 806 +69 764
2017/08/20 831 042 -18 266
2017/08/19 849 308 -16 673
2017/08/18 865 981 +1 814
2017/08/17 864 167 +3 601
2017/08/16 860 566 +16 269
2017/08/15 844 297 +20 136
2017/08/14 824 161 +17 645
2017/08/13 806 516 +19 544
2017/08/12 786 972 -39 763
2017/08/11 826 735 -30 917
2017/08/10 857 652 -29 480
2017/08/09 887 132 -8 624
2017/08/08 895 756 -71 919
2017/08/07 967 675 +20 940
2017/08/06 946 735 -1 400
2017/08/05 948 135 +23 481
2017/08/04 924 654 +36 699
2017/08/03 887 955 -15 200
2017/08/02 903 155 -84 119
2017/08/01 987 274 +12 649
2017/07/30 974 625 -24 960
2017/07/29 999 585 +5 263
2017/07/28 994 322 +19 526
2017/07/27 974 796

WIDGET FOR YOUR SITE

DOMAINS WITH THE NEAREST RANK

Domain Rank
kvarnvideo.se 819 110
wcarqsztdfletch.review 819 111
doloypsoriaz.ru 819 112
tank-sakurai.com 819 113
kamery.pl 819 114
strutta.com 819 115
wwstar.com 819 116
ang-f-ns.com 819 117
ensinonarede.com.br 819 118
immediatemillionaire.com 819 119
extremeshitporn.com 819 120

DOMAINS WITH THE NEAREST RANK BY TLD .com

Domain Rank
palmplaystore.com 819 099
neilparkhurst.com 819 101
cloud-kinetics.com 819 103
khotangcadao.com 819 106
tank-sakurai.com 819 113
strutta.com 819 115
wwstar.com 819 116
ang-f-ns.com 819 117
immediatemillionaire.com 819 119
extremeshitporn.com 819 120
diaridebadalona.com 819 121